sensor_id;sensor_type;location;lat;lon;timestamp;P1;durP1;ratioP1;P2;durP2;ratioP2
27839;SDS011;15207;42.182;24.308;2022-12-10T00:01:25;96.60;;;39.10;;
27839;SDS011;15207;42.182;24.308;2022-12-10T00:03:52;97.43;;;39.77;;
27839;SDS011;15207;42.182;24.308;2022-12-10T00:06:19;109.15;;;45.83;;
27839;SDS011;15207;42.182;24.308;2022-12-10T00:08:47;108.75;;;43.35;;
27839;SDS011;15207;42.182;24.308;2022-12-10T00:11:13;95.93;;;39.95;;
27839;SDS011;15207;42.182;24.308;2022-12-10T00:13:40;100.47;;;41.25;;
27839;SDS011;15207;42.182;24.308;2022-12-10T00:16:09;95.72;;;36.95;;
27839;SDS011;15207;42.182;24.308;2022-12-10T00:18:36;97.63;;;39.80;;
27839;SDS011;15207;42.182;24.308;2022-12-10T00:21:03;99.30;;;40.60;;
27839;SDS011;15207;42.182;24.308;2022-12-10T00:23:30;98.45;;;40.25;;
27839;SDS011;15207;42.182;24.308;2022-12-10T00:26:04;89.85;;;36.55;;
27839;SDS011;15207;42.182;24.308;2022-12-10T00:28:30;88.80;;;36.78;;
27839;SDS011;15207;42.182;24.308;2022-12-10T00:31:07;83.03;;;35.03;;
27839;SDS011;15207;42.182;24.308;2022-12-10T00:33:35;90.37;;;36.93;;
27839;SDS011;15207;42.182;24.308;2022-12-10T00:36:06;89.35;;;36.35;;
27839;SDS011;15207;42.182;24.308;2022-12-10T00:38:34;90.30;;;34.38;;
27839;SDS011;15207;42.182;24.308;2022-12-10T00:41:00;85.40;;;34.20;;
27839;SDS011;15207;42.182;24.308;2022-12-10T00:43:26;93.57;;;36.60;;
27839;SDS011;15207;42.182;24.308;2022-12-10T00:45:52;93.90;;;36.90;;
27839;SDS011;15207;42.182;24.308;2022-12-10T00:48:17;95.77;;;37.97;;
27839;SDS011;15207;42.182;24.308;2022-12-10T00:50:43;92.80;;;37.22;;
27839;SDS011;15207;42.182;24.308;2022-12-10T00:53:09;97.50;;;35.75;;
27839;SDS011;15207;42.182;24.308;2022-12-10T00:55:34;90.10;;;34.22;;
27839;SDS011;15207;42.182;24.308;2022-12-10T00:58:00;92.85;;;35.00;;
27839;SDS011;15207;42.182;24.308;2022-12-10T01:00:25;86.70;;;37.58;;
27839;SDS011;15207;42.182;24.308;2022-12-10T01:02:51;92.80;;;34.90;;
27839;SDS011;15207;42.182;24.308;2022-12-10T01:05:18;95.95;;;36.20;;
27839;SDS011;15207;42.182;24.308;2022-12-10T01:07:43;79.90;;;34.30;;
27839;SDS011;15207;42.182;24.308;2022-12-10T01:10:09;89.00;;;34.40;;
27839;SDS011;15207;42.182;24.308;2022-12-10T01:12:34;90.72;;;36.08;;
27839;SDS011;15207;42.182;24.308;2022-12-10T01:15:00;82.87;;;35.13;;
27839;SDS011;15207;42.182;24.308;2022-12-10T01:17:25;91.13;;;36.17;;
27839;SDS011;15207;42.182;24.308;2022-12-10T01:19:51;83.60;;;34.93;;
27839;SDS011;15207;42.182;24.308;2022-12-10T01:22:17;85.03;;;35.73;;
27839;SDS011;15207;42.182;24.308;2022-12-10T01:24:42;92.18;;;36.50;;
27839;SDS011;15207;42.182;24.308;2022-12-10T01:27:08;87.50;;;35.65;;
27839;SDS011;15207;42.182;24.308;2022-12-10T01:29:33;83.22;;;34.85;;
27839;SDS011;15207;42.182;24.308;2022-12-10T01:31:59;88.05;;;33.75;;
27839;SDS011;15207;42.182;24.308;2022-12-10T01:34:24;89.30;;;33.00;;
27839;SDS011;15207;42.182;24.308;2022-12-10T01:36:52;83.65;;;32.58;;
27839;SDS011;15207;42.182;24.308;2022-12-10T01:39:19;73.47;;;30.20;;
27839;SDS011;15207;42.182;24.308;2022-12-10T01:41:47;89.97;;;31.48;;
27839;SDS011;15207;42.182;24.308;2022-12-10T01:46:43;73.30;;;31.63;;
27839;SDS011;15207;42.182;24.308;2022-12-10T01:49:17;71.05;;;29.77;;
27839;SDS011;15207;42.182;24.308;2022-12-10T01:51:46;77.97;;;29.75;;
27839;SDS011;15207;42.182;24.308;2022-12-10T01:54:16;73.57;;;28.67;;
27839;SDS011;15207;42.182;24.308;2022-12-10T01:56:45;61.05;;;27.45;;
27839;SDS011;15207;42.182;24.308;2022-12-10T01:59:15;62.63;;;27.30;;
27839;SDS011;15207;42.182;24.308;2022-12-10T02:01:56;66.30;;;27.80;;
27839;SDS011;15207;42.182;24.308;2022-12-10T02:07:39;64.00;;;26.35;;
27839;SDS011;15207;42.182;24.308;2022-12-10T02:10:28;57.67;;;26.98;;
27839;SDS011;15207;42.182;24.308;2022-12-10T02:13:24;64.70;;;27.17;;
27839;SDS011;15207;42.182;24.308;2022-12-10T02:16:05;63.07;;;25.80;;
27839;SDS011;15207;42.182;24.308;2022-12-10T02:18:43;63.40;;;23.63;;
27839;SDS011;15207;42.182;24.308;2022-12-10T02:21:28;53.85;;;22.40;;
27839;SDS011;15207;42.182;24.308;2022-12-10T02:24:00;54.50;;;23.40;;
27839;SDS011;15207;42.182;24.308;2022-12-10T02:29:16;44.75;;;20.90;;
27839;SDS011;15207;42.182;24.308;2022-12-10T02:31:48;45.40;;;20.70;;
27839;SDS011;15207;42.182;24.308;2022-12-10T02:34:22;46.80;;;21.90;;
27839;SDS011;15207;42.182;24.308;2022-12-10T02:36:52;48.30;;;20.45;;
27839;SDS011;15207;42.182;24.308;2022-12-10T02:39:20;42.10;;;20.30;;
27839;SDS011;15207;42.182;24.308;2022-12-10T02:41:52;42.97;;;20.07;;
27839;SDS011;15207;42.182;24.308;2022-12-10T02:44:19;36.40;;;19.10;;
27839;SDS011;15207;42.182;24.308;2022-12-10T02:46:47;42.28;;;19.33;;
27839;SDS011;15207;42.182;24.308;2022-12-10T02:49:17;41.58;;;19.95;;
27839;SDS011;15207;42.182;24.308;2022-12-10T02:51:44;34.28;;;19.02;;
27839;SDS011;15207;42.182;24.308;2022-12-10T03:00:05;41.85;;;20.65;;
27839;SDS011;15207;42.182;24.308;2022-12-10T03:05:27;41.55;;;20.35;;
27839;SDS011;15207;42.182;24.308;2022-12-10T03:08:10;45.67;;;20.95;;
27839;SDS011;15207;42.182;24.308;2022-12-10T03:10:45;35.80;;;19.45;;
27839;SDS011;15207;42.182;24.308;2022-12-10T03:13:26;42.75;;;19.20;;
27839;SDS011;15207;42.182;24.308;2022-12-10T03:16:22;38.65;;;20.08;;
27839;SDS011;15207;42.182;24.308;2022-12-10T03:18:51;38.50;;;20.15;;
27839;SDS011;15207;42.182;24.308;2022-12-10T03:21:21;38.35;;;19.90;;
27839;SDS011;15207;42.182;24.308;2022-12-10T03:23:49;38.00;;;19.90;;
27839;SDS011;15207;42.182;24.308;2022-12-10T03:26:16;36.55;;;21.55;;
27839;SDS011;15207;42.182;24.308;2022-12-10T03:28:48;38.80;;;20.52;;
27839;SDS011;15207;42.182;24.308;2022-12-10T03:31:16;43.00;;;20.93;;
27839;SDS011;15207;42.182;24.308;2022-12-10T03:33:44;42.80;;;21.50;;
27839;SDS011;15207;42.182;24.308;2022-12-10T03:36:11;44.35;;;20.58;;
27839;SDS011;15207;42.182;24.308;2022-12-10T03:38:38;42.80;;;21.17;;
27839;SDS011;15207;42.182;24.308;2022-12-10T03:41:05;40.58;;;20.33;;
27839;SDS011;15207;42.182;24.308;2022-12-10T03:43:30;40.70;;;20.80;;
27839;SDS011;15207;42.182;24.308;2022-12-10T03:45:56;42.20;;;20.50;;
27839;SDS011;15207;42.182;24.308;2022-12-10T03:48:22;39.20;;;20.30;;
27839;SDS011;15207;42.182;24.308;2022-12-10T03:50:48;39.57;;;20.80;;
27839;SDS011;15207;42.182;24.308;2022-12-10T03:53:13;37.10;;;20.05;;
27839;SDS011;15207;42.182;24.308;2022-12-10T03:55:39;46.97;;;20.10;;
27839;SDS011;15207;42.182;24.308;2022-12-10T03:58:04;41.27;;;20.00;;
27839;SDS011;15207;42.182;24.308;2022-12-10T04:00:30;42.83;;;21.63;;
27839;SDS011;15207;42.182;24.308;2022-12-10T04:02:55;46.60;;;22.55;;
27839;SDS011;15207;42.182;24.308;2022-12-10T04:05:21;40.60;;;21.30;;
27839;SDS011;15207;42.182;24.308;2022-12-10T04:07:46;43.80;;;20.50;;
27839;SDS011;15207;42.182;24.308;2022-12-10T04:10:12;44.93;;;22.47;;
27839;SDS011;15207;42.182;24.308;2022-12-10T04:12:38;51.35;;;22.70;;
27839;SDS011;15207;42.182;24.308;2022-12-10T04:15:04;42.30;;;21.00;;
27839;SDS011;15207;42.182;24.308;2022-12-10T04:17:48;43.25;;;21.45;;
27839;SDS011;15207;42.182;24.308;2022-12-10T04:23:35;48.67;;;23.20;;
27839;SDS011;15207;42.182;24.308;2022-12-10T04:33:12;50.10;;;23.85;;
27839;SDS011;15207;42.182;24.308;2022-12-10T04:35:38;56.25;;;26.35;;
27839;SDS011;15207;42.182;24.308;2022-12-10T04:38:03;54.50;;;26.30;;
27839;SDS011;15207;42.182;24.308;2022-12-10T04:40:29;62.20;;;28.00;;
27839;SDS011;15207;42.182;24.308;2022-12-10T04:42:54;63.90;;;26.60;;
27839;SDS011;15207;42.182;24.308;2022-12-10T04:45:19;63.30;;;25.80;;
27839;SDS011;15207;42.182;24.308;2022-12-10T04:47:45;52.00;;;25.80;;
27839;SDS011;15207;42.182;24.308;2022-12-10T04:52:36;49.70;;;26.40;;
27839;SDS011;15207;42.182;24.308;2022-12-10T04:55:01;51.30;;;26.17;;
27839;SDS011;15207;42.182;24.308;2022-12-10T04:57:27;54.45;;;26.60;;
27839;SDS011;15207;42.182;24.308;2022-12-10T04:59:52;57.60;;;26.70;;
27839;SDS011;15207;42.182;24.308;2022-12-10T05:02:18;54.78;;;24.73;;
27839;SDS011;15207;42.182;24.308;2022-12-10T05:04:43;50.30;;;25.10;;
27839;SDS011;15207;42.182;24.308;2022-12-10T05:09:34;57.00;;;26.15;;
27839;SDS011;15207;42.182;24.308;2022-12-10T05:12:00;61.87;;;29.07;;
27839;SDS011;15207;42.182;24.308;2022-12-10T05:14:25;56.85;;;26.35;;
27839;SDS011;15207;42.182;24.308;2022-12-10T05:16:51;59.15;;;26.85;;
27839;SDS011;15207;42.182;24.308;2022-12-10T05:19:16;64.10;;;27.65;;
27839;SDS011;15207;42.182;24.308;2022-12-10T05:21:44;50.35;;;25.10;;
27839;SDS011;15207;42.182;24.308;2022-12-10T05:24:28;56.55;;;24.80;;
27839;SDS011;15207;42.182;24.308;2022-12-10T05:26:54;50.45;;;23.35;;
27839;SDS011;15207;42.182;24.308;2022-12-10T05:29:22;52.97;;;22.65;;
27839;SDS011;15207;42.182;24.308;2022-12-10T05:34:13;48.35;;;22.17;;
27839;SDS011;15207;42.182;24.308;2022-12-10T05:36:38;50.07;;;24.10;;
27839;SDS011;15207;42.182;24.308;2022-12-10T05:39:04;60.15;;;23.92;;
27839;SDS011;15207;42.182;24.308;2022-12-10T05:41:30;53.90;;;24.75;;
27839;SDS011;15207;42.182;24.308;2022-12-10T05:43:59;62.50;;;25.30;;
27839;SDS011;15207;42.182;24.308;2022-12-10T05:46:28;56.07;;;25.87;;
27839;SDS011;15207;42.182;24.308;2022-12-10T05:48:56;65.40;;;25.90;;
27839;SDS011;15207;42.182;24.308;2022-12-10T05:51:23;54.70;;;25.93;;
27839;SDS011;15207;42.182;24.308;2022-12-10T05:53:51;59.17;;;27.50;;
27839;SDS011;15207;42.182;24.308;2022-12-10T05:56:19;66.78;;;26.98;;
27839;SDS011;15207;42.182;24.308;2022-12-10T05:58:46;58.45;;;26.55;;
27839;SDS011;15207;42.182;24.308;2022-12-10T06:01:17;68.80;;;28.15;;
27839;SDS011;15207;42.182;24.308;2022-12-10T06:03:44;60.00;;;27.58;;
27839;SDS011;15207;42.182;24.308;2022-12-10T06:06:10;68.30;;;28.57;;
27839;SDS011;15207;42.182;24.308;2022-12-10T06:08:37;59.20;;;26.90;;
27839;SDS011;15207;42.182;24.308;2022-12-10T06:11:03;73.55;;;32.20;;
27839;SDS011;15207;42.182;24.308;2022-12-10T06:13:30;66.65;;;30.30;;
27839;SDS011;15207;42.182;24.308;2022-12-10T06:18:38;73.90;;;30.90;;
27839;SDS011;15207;42.182;24.308;2022-12-10T06:21:04;62.63;;;30.05;;
27839;SDS011;15207;42.182;24.308;2022-12-10T06:23:31;58.15;;;26.70;;
27839;SDS011;15207;42.182;24.308;2022-12-10T06:25:56;65.75;;;26.35;;
27839;SDS011;15207;42.182;24.308;2022-12-10T06:28:22;54.20;;;25.75;;
27839;SDS011;15207;42.182;24.308;2022-12-10T06:30:47;46.97;;;24.58;;
27839;SDS011;15207;42.182;24.308;2022-12-10T06:33:13;46.65;;;25.05;;
27839;SDS011;15207;42.182;24.308;2022-12-10T06:35:38;46.80;;;23.50;;
27839;SDS011;15207;42.182;24.308;2022-12-10T06:38:04;47.07;;;24.10;;
27839;SDS011;15207;42.182;24.308;2022-12-10T06:40:29;47.60;;;24.10;;
27839;SDS011;15207;42.182;24.308;2022-12-10T06:42:55;43.65;;;23.17;;
27839;SDS011;15207;42.182;24.308;2022-12-10T06:45:20;45.85;;;24.35;;
27839;SDS011;15207;42.182;24.308;2022-12-10T06:47:46;55.83;;;27.85;;
27839;SDS011;15207;42.182;24.308;2022-12-10T06:50:11;55.63;;;26.98;;
27839;SDS011;15207;42.182;24.308;2022-12-10T06:52:37;51.17;;;26.27;;
27839;SDS011;15207;42.182;24.308;2022-12-10T06:55:02;51.85;;;26.33;;
27839;SDS011;15207;42.182;24.308;2022-12-10T06:57:29;45.47;;;25.30;;
27839;SDS011;15207;42.182;24.308;2022-12-10T06:59:54;54.00;;;26.23;;
27839;SDS011;15207;42.182;24.308;2022-12-10T07:02:20;46.03;;;22.75;;
27839;SDS011;15207;42.182;24.308;2022-12-10T07:04:45;44.25;;;22.20;;
27839;SDS011;15207;42.182;24.308;2022-12-10T07:07:11;42.38;;;19.50;;
27839;SDS011;15207;42.182;24.308;2022-12-10T07:09:36;36.40;;;20.70;;
27839;SDS011;15207;42.182;24.308;2022-12-10T07:12:03;36.00;;;19.00;;
27839;SDS011;15207;42.182;24.308;2022-12-10T07:14:28;35.90;;;18.90;;
27839;SDS011;15207;42.182;24.308;2022-12-10T07:16:54;34.83;;;18.60;;
27839;SDS011;15207;42.182;24.308;2022-12-10T07:19:20;35.75;;;19.35;;
27839;SDS011;15207;42.182;24.308;2022-12-10T07:21:45;40.58;;;20.48;;
27839;SDS011;15207;42.182;24.308;2022-12-10T07:24:14;37.53;;;20.15;;
27839;SDS011;15207;42.182;24.308;2022-12-10T07:26:42;31.05;;;18.95;;
27839;SDS011;15207;42.182;24.308;2022-12-10T07:29:10;34.23;;;19.60;;
27839;SDS011;15207;42.182;24.308;2022-12-10T07:31:38;39.30;;;20.25;;
27839;SDS011;15207;42.182;24.308;2022-12-10T07:34:04;41.35;;;20.20;;
27839;SDS011;15207;42.182;24.308;2022-12-10T07:36:30;42.95;;;21.85;;
27839;SDS011;15207;42.182;24.308;2022-12-10T07:38:55;41.08;;;21.65;;
27839;SDS011;15207;42.182;24.308;2022-12-10T07:41:21;38.30;;;21.25;;
27839;SDS011;15207;42.182;24.308;2022-12-10T07:43:48;46.40;;;24.70;;
27839;SDS011;15207;42.182;24.308;2022-12-10T07:46:18;46.35;;;25.27;;
27839;SDS011;15207;42.182;24.308;2022-12-10T07:48:46;46.80;;;25.35;;
27839;SDS011;15207;42.182;24.308;2022-12-10T07:51:13;40.50;;;22.60;;
27839;SDS011;15207;42.182;24.308;2022-12-10T07:53:39;39.45;;;21.70;;
27839;SDS011;15207;42.182;24.308;2022-12-10T07:56:05;34.77;;;19.17;;
27839;SDS011;15207;42.182;24.308;2022-12-10T07:58:31;37.17;;;21.90;;
27839;SDS011;15207;42.182;24.308;2022-12-10T08:03:23;41.03;;;25.67;;
27839;SDS011;15207;42.182;24.308;2022-12-10T08:05:49;36.87;;;20.50;;
27839;SDS011;15207;42.182;24.308;2022-12-10T08:08:26;41.37;;;20.63;;
27839;SDS011;15207;42.182;24.308;2022-12-10T08:10:51;31.50;;;19.80;;
27839;SDS011;15207;42.182;24.308;2022-12-10T08:13:17;36.15;;;18.50;;
27839;SDS011;15207;42.182;24.308;2022-12-10T08:15:42;39.60;;;19.55;;
27839;SDS011;15207;42.182;24.308;2022-12-10T08:18:07;30.55;;;17.40;;
27839;SDS011;15207;42.182;24.308;2022-12-10T08:20:33;35.30;;;18.50;;
27839;SDS011;15207;42.182;24.308;2022-12-10T08:23:00;36.05;;;19.00;;
27839;SDS011;15207;42.182;24.308;2022-12-10T08:25:25;34.95;;;19.35;;
27839;SDS011;15207;42.182;24.308;2022-12-10T08:27:51;34.65;;;18.70;;
27839;SDS011;15207;42.182;24.308;2022-12-10T08:32:42;35.80;;;19.50;;
27839;SDS011;15207;42.182;24.308;2022-12-10T08:35:07;37.90;;;20.50;;
27839;SDS011;15207;42.182;24.308;2022-12-10T08:37:33;38.55;;;22.45;;
27839;SDS011;15207;42.182;24.308;2022-12-10T08:39:58;41.40;;;22.40;;
27839;SDS011;15207;42.182;24.308;2022-12-10T08:42:24;38.93;;;22.23;;
27839;SDS011;15207;42.182;24.308;2022-12-10T08:44:49;39.72;;;22.88;;
27839;SDS011;15207;42.182;24.308;2022-12-10T08:47:15;34.90;;;21.10;;
27839;SDS011;15207;42.182;24.308;2022-12-10T08:49:41;37.65;;;21.55;;
27839;SDS011;15207;42.182;24.308;2022-12-10T08:52:06;36.60;;;23.00;;
27839;SDS011;15207;42.182;24.308;2022-12-10T08:54:32;37.30;;;21.65;;
27839;SDS011;15207;42.182;24.308;2022-12-10T08:56:57;35.70;;;20.80;;
27839;SDS011;15207;42.182;24.308;2022-12-10T08:59:23;33.80;;;20.00;;
27839;SDS011;15207;42.182;24.308;2022-12-10T09:01:50;30.60;;;18.00;;
27839;SDS011;15207;42.182;24.308;2022-12-10T09:04:16;32.35;;;19.50;;
27839;SDS011;15207;42.182;24.308;2022-12-10T09:06:42;25.65;;;17.40;;
27839;SDS011;15207;42.182;24.308;2022-12-10T09:09:07;33.50;;;18.50;;
27839;SDS011;15207;42.182;24.308;2022-12-10T09:11:33;30.35;;;17.95;;
27839;SDS011;15207;42.182;24.308;2022-12-10T09:14:00;31.10;;;18.10;;
27839;SDS011;15207;42.182;24.308;2022-12-10T09:16:30;33.25;;;18.75;;
27839;SDS011;15207;42.182;24.308;2022-12-10T09:18:58;34.22;;;20.92;;
27839;SDS011;15207;42.182;24.308;2022-12-10T09:21:24;38.37;;;22.03;;
27839;SDS011;15207;42.182;24.308;2022-12-10T09:23:50;38.50;;;22.20;;
27839;SDS011;15207;42.182;24.308;2022-12-10T09:26:17;44.40;;;23.88;;
27839;SDS011;15207;42.182;24.308;2022-12-10T09:28:44;41.55;;;23.15;;
27839;SDS011;15207;42.182;24.308;2022-12-10T09:31:11;45.27;;;25.50;;
27839;SDS011;15207;42.182;24.308;2022-12-10T09:33:37;36.70;;;19.70;;
27839;SDS011;15207;42.182;24.308;2022-12-10T09:36:04;31.00;;;18.55;;
27839;SDS011;15207;42.182;24.308;2022-12-10T09:38:33;32.30;;;16.58;;
27839;SDS011;15207;42.182;24.308;2022-12-10T09:51:54;29.55;;;16.00;;
27839;SDS011;15207;42.182;24.308;2022-12-10T09:54:43;34.90;;;17.50;;
27839;SDS011;15207;42.182;24.308;2022-12-10T09:57:38;23.00;;;13.02;;
27839;SDS011;15207;42.182;24.308;2022-12-10T10:02:37;21.52;;;13.90;;
27839;SDS011;15207;42.182;24.308;2022-12-10T10:07:46;28.40;;;14.85;;
27839;SDS011;15207;42.182;24.308;2022-12-10T10:18:41;32.70;;;15.50;;
27839;SDS011;15207;42.182;24.308;2022-12-10T10:21:22;29.80;;;17.30;;
27839;SDS011;15207;42.182;24.308;2022-12-10T10:23:49;32.40;;;17.00;;
27839;SDS011;15207;42.182;24.308;2022-12-10T10:26:15;43.80;;;20.03;;
27839;SDS011;15207;42.182;24.308;2022-12-10T10:28:41;34.05;;;18.00;;
27839;SDS011;15207;42.182;24.308;2022-12-10T10:31:22;29.57;;;14.93;;
27839;SDS011;15207;42.182;24.308;2022-12-10T10:33:50;28.10;;;14.05;;
27839;SDS011;15207;42.182;24.308;2022-12-10T10:36:31;32.10;;;15.40;;
27839;SDS011;15207;42.182;24.308;2022-12-10T10:39:20;29.80;;;15.50;;
27839;SDS011;15207;42.182;24.308;2022-12-10T10:41:54;33.40;;;15.95;;
27839;SDS011;15207;42.182;24.308;2022-12-10T10:44:23;26.45;;;14.30;;
27839;SDS011;15207;42.182;24.308;2022-12-10T10:46:52;27.70;;;14.20;;
27839;SDS011;15207;42.182;24.308;2022-12-10T10:52:06;38.20;;;14.80;;
27839;SDS011;15207;42.182;24.308;2022-12-10T10:54:39;29.10;;;15.40;;
27839;SDS011;15207;42.182;24.308;2022-12-10T11:00:20;45.23;;;16.70;;
27839;SDS011;15207;42.182;24.308;2022-12-10T11:02:50;58.85;;;17.95;;
27839;SDS011;15207;42.182;24.308;2022-12-10T11:05:26;34.50;;;16.85;;
27839;SDS011;15207;42.182;24.308;2022-12-10T11:08:02;37.40;;;15.40;;
27839;SDS011;15207;42.182;24.308;2022-12-10T11:10:30;44.00;;;18.10;;
27839;SDS011;15207;42.182;24.308;2022-12-10T11:17:55;55.90;;;23.90;;
27839;SDS011;15207;42.182;24.308;2022-12-10T11:22:57;47.10;;;19.00;;
27839;SDS011;15207;42.182;24.308;2022-12-10T11:27:58;51.40;;;24.15;;
27839;SDS011;15207;42.182;24.308;2022-12-10T11:30:48;57.55;;;21.15;;
27839;SDS011;15207;42.182;24.308;2022-12-10T11:34:02;43.55;;;21.40;;
27839;SDS011;15207;42.182;24.308;2022-12-10T11:48:05;44.60;;;20.05;;
27839;SDS011;15207;42.182;24.308;2022-12-10T11:50:34;43.60;;;19.15;;
27839;SDS011;15207;42.182;24.308;2022-12-10T12:00:59;51.20;;;20.85;;
27839;SDS011;15207;42.182;24.308;2022-12-10T12:03:50;54.60;;;27.40;;
27839;SDS011;15207;42.182;24.308;2022-12-10T12:09:08;46.40;;;22.70;;
27839;SDS011;15207;42.182;24.308;2022-12-10T12:14:55;58.20;;;24.50;;
27839;SDS011;15207;42.182;24.308;2022-12-10T12:19:46;55.17;;;24.03;;
27839;SDS011;15207;42.182;24.308;2022-12-10T12:22:28;53.37;;;25.63;;
27839;SDS011;15207;42.182;24.308;2022-12-10T12:25:02;68.45;;;26.20;;
27839;SDS011;15207;42.182;24.308;2022-12-10T12:30:13;50.60;;;24.15;;
27839;SDS011;15207;42.182;24.308;2022-12-10T12:38:21;59.80;;;23.35;;
27839;SDS011;15207;42.182;24.308;2022-12-10T12:41:05;73.95;;;26.35;;
27839;SDS011;15207;42.182;24.308;2022-12-10T12:43:42;70.90;;;27.70;;
27839;SDS011;15207;42.182;24.308;2022-12-10T12:46:20;56.15;;;25.70;;
27839;SDS011;15207;42.182;24.308;2022-12-10T12:49:02;54.67;;;25.70;;
27839;SDS011;15207;42.182;24.308;2022-12-10T12:55:04;60.50;;;23.70;;
27839;SDS011;15207;42.182;24.308;2022-12-10T12:57:49;52.35;;;24.48;;
27839;SDS011;15207;42.182;24.308;2022-12-10T13:00:26;51.70;;;23.23;;
27839;SDS011;15207;42.182;24.308;2022-12-10T13:06:11;53.90;;;23.60;;
27839;SDS011;15207;42.182;24.308;2022-12-10T13:08:47;50.60;;;23.50;;
27839;SDS011;15207;42.182;24.308;2022-12-10T13:11:17;49.10;;;23.35;;
27839;SDS011;15207;42.182;24.308;2022-12-10T13:48:46;54.15;;;26.55;;
27839;SDS011;15207;42.182;24.308;2022-12-10T13:51:13;65.90;;;27.17;;
27839;SDS011;15207;42.182;24.308;2022-12-10T14:07:45;63.00;;;28.70;;
27839;SDS011;15207;42.182;24.308;2022-12-10T14:10:16;65.00;;;30.10;;
27839;SDS011;15207;42.182;24.308;2022-12-10T14:12:45;70.20;;;29.65;;
27839;SDS011;15207;42.182;24.308;2022-12-10T14:17:47;78.60;;;31.00;;
27839;SDS011;15207;42.182;24.308;2022-12-10T14:20:17;68.83;;;30.53;;
27839;SDS011;15207;42.182;24.308;2022-12-10T14:22:49;65.40;;;29.65;;
27839;SDS011;15207;42.182;24.308;2022-12-10T14:25:19;53.80;;;27.20;;
27839;SDS011;15207;42.182;24.308;2022-12-10T14:27:47;57.65;;;26.25;;
27839;SDS011;15207;42.182;24.308;2022-12-10T14:30:18;62.67;;;28.05;;
27839;SDS011;15207;42.182;24.308;2022-12-10T14:32:48;70.85;;;27.00;;
27839;SDS011;15207;42.182;24.308;2022-12-10T14:35:17;62.57;;;24.33;;
27839;SDS011;15207;42.182;24.308;2022-12-10T14:37:46;76.15;;;26.65;;
27839;SDS011;15207;42.182;24.308;2022-12-10T14:40:21;62.50;;;25.60;;
27839;SDS011;15207;42.182;24.308;2022-12-10T14:42:50;74.15;;;27.42;;
27839;SDS011;15207;42.182;24.308;2022-12-10T14:45:24;63.05;;;26.05;;
27839;SDS011;15207;42.182;24.308;2022-12-10T14:47:56;71.05;;;29.00;;
27839;SDS011;15207;42.182;24.308;2022-12-10T14:50:25;74.77;;;33.23;;
27839;SDS011;15207;42.182;24.308;2022-12-10T14:52:53;81.00;;;32.80;;
27839;SDS011;15207;42.182;24.308;2022-12-10T14:55:19;78.45;;;34.60;;
27839;SDS011;15207;42.182;24.308;2022-12-10T14:57:49;67.40;;;32.50;;
27839;SDS011;15207;42.182;24.308;2022-12-10T15:00:21;69.65;;;31.20;;
27839;SDS011;15207;42.182;24.308;2022-12-10T15:02:50;67.10;;;31.10;;
27839;SDS011;15207;42.182;24.308;2022-12-10T15:07:53;61.63;;;28.55;;
27839;SDS011;15207;42.182;24.308;2022-12-10T15:10:23;62.90;;;27.33;;
27839;SDS011;15207;42.182;24.308;2022-12-10T15:12:52;58.30;;;25.83;;
27839;SDS011;15207;42.182;24.308;2022-12-10T15:15:22;53.50;;;25.60;;
27839;SDS011;15207;42.182;24.308;2022-12-10T15:17:55;52.80;;;26.13;;
27839;SDS011;15207;42.182;24.308;2022-12-10T15:20:26;59.60;;;27.35;;
27839;SDS011;15207;42.182;24.308;2022-12-10T15:23:05;63.33;;;31.83;;
27839;SDS011;15207;42.182;24.308;2022-12-10T15:28:41;67.00;;;29.70;;
27839;SDS011;15207;42.182;24.308;2022-12-10T15:31:11;65.83;;;28.87;;
27839;SDS011;15207;42.182;24.308;2022-12-10T15:33:58;59.65;;;28.90;;
27839;SDS011;15207;42.182;24.308;2022-12-10T15:39:12;59.73;;;30.00;;
27839;SDS011;15207;42.182;24.308;2022-12-10T15:41:44;70.60;;;29.45;;
27839;SDS011;15207;42.182;24.308;2022-12-10T15:47:00;66.80;;;30.63;;
27839;SDS011;15207;42.182;24.308;2022-12-10T15:49:36;92.55;;;34.33;;
27839;SDS011;15207;42.182;24.308;2022-12-10T15:52:02;68.80;;;33.00;;
27839;SDS011;15207;42.182;24.308;2022-12-10T15:54:40;70.55;;;31.90;;
27839;SDS011;15207;42.182;24.308;2022-12-10T15:59:51;78.77;;;32.90;;
27839;SDS011;15207;42.182;24.308;2022-12-10T16:02:25;76.50;;;31.67;;
27839;SDS011;15207;42.182;24.308;2022-12-10T16:04:51;73.40;;;33.85;;
27839;SDS011;15207;42.182;24.308;2022-12-10T16:07:17;77.97;;;34.87;;
27839;SDS011;15207;42.182;24.308;2022-12-10T16:09:44;80.70;;;32.92;;
27839;SDS011;15207;42.182;24.308;2022-12-10T16:12:10;92.38;;;35.42;;
27839;SDS011;15207;42.182;24.308;2022-12-10T16:14:37;72.95;;;32.70;;
27839;SDS011;15207;42.182;24.308;2022-12-10T16:17:03;84.10;;;34.90;;
27839;SDS011;15207;42.182;24.308;2022-12-10T16:19:29;74.53;;;31.27;;
27839;SDS011;15207;42.182;24.308;2022-12-10T16:21:55;64.05;;;30.05;;
27839;SDS011;15207;42.182;24.308;2022-12-10T16:24:20;64.27;;;31.53;;
27839;SDS011;15207;42.182;24.308;2022-12-10T16:26:46;64.40;;;33.00;;
27839;SDS011;15207;42.182;24.308;2022-12-10T16:29:12;66.18;;;33.10;;
27839;SDS011;15207;42.182;24.308;2022-12-10T16:31:39;63.15;;;33.40;;
27839;SDS011;15207;42.182;24.308;2022-12-10T16:34:04;66.22;;;32.30;;
27839;SDS011;15207;42.182;24.308;2022-12-10T16:36:30;61.80;;;32.30;;
27839;SDS011;15207;42.182;24.308;2022-12-10T16:38:56;72.05;;;36.70;;
27839;SDS011;15207;42.182;24.308;2022-12-10T16:41:23;70.45;;;36.53;;
27839;SDS011;15207;42.182;24.308;2022-12-10T16:43:49;76.15;;;35.90;;
27839;SDS011;15207;42.182;24.308;2022-12-10T16:46:15;72.20;;;35.20;;
27839;SDS011;15207;42.182;24.308;2022-12-10T16:48:41;69.90;;;35.60;;
27839;SDS011;15207;42.182;24.308;2022-12-10T16:51:49;76.07;;;35.60;;
27839;SDS011;15207;42.182;24.308;2022-12-10T16:53:56;70.45;;;35.75;;
27839;SDS011;15207;42.182;24.308;2022-12-10T16:56:21;79.50;;;34.75;;
27839;SDS011;15207;42.182;24.308;2022-12-10T16:58:47;84.18;;;40.25;;
27839;SDS011;15207;42.182;24.308;2022-12-10T17:01:18;118.15;;;55.10;;
27839;SDS011;15207;42.182;24.308;2022-12-10T17:03:46;138.60;;;67.68;;
27839;SDS011;15207;42.182;24.308;2022-12-10T17:06:13;169.70;;;86.40;;
27839;SDS011;15207;42.182;24.308;2022-12-10T17:08:38;204.80;;;97.80;;
27839;SDS011;15207;42.182;24.308;2022-12-10T17:11:10;195.98;;;96.80;;
27839;SDS011;15207;42.182;24.308;2022-12-10T17:13:59;189.83;;;88.17;;
27839;SDS011;15207;42.182;24.308;2022-12-10T17:16:26;149.02;;;70.70;;
27839;SDS011;15207;42.182;24.308;2022-12-10T17:18:52;178.98;;;85.05;;
27839;SDS011;15207;42.182;24.308;2022-12-10T17:21:18;169.40;;;77.90;;
27839;SDS011;15207;42.182;24.308;2022-12-10T17:23:44;170.20;;;81.50;;
27839;SDS011;15207;42.182;24.308;2022-12-10T17:26:24;176.80;;;87.82;;
27839;SDS011;15207;42.182;24.308;2022-12-10T17:28:53;162.73;;;78.70;;
27839;SDS011;15207;42.182;24.308;2022-12-10T17:31:21;195.18;;;94.22;;